Time;durP1;ratioP1;P1;durP2;ratioP2;P2;SDS_P1;SDS_P2;PMS_P1;PMS_P2;Temp;Humidity;BMP_temperature;BMP_pressure;BME280_temperature;BME280_humidity;BME280_pressure;Samples;Min_cycle;Max_cycle;Signal;HPM_P1;HPM_P2
2023/06/21 00:00:12;;;;;;;10.00;8.98;;;;;;;19.30;100.00;95726.50;5063234;28;20618;-78
2023/06/21 00:02:39;;;;;;;15.32;8.93;;;;;;;19.35;100.00;95726.75;5059075;28;20476;-78
2023/06/21 00:05:09;;;;;;;10.38;8.43;;;;;;;19.36;100.00;95738.22;5075283;28;20067;-78
2023/06/21 00:07:34;;;;;;;10.35;7.85;;;;;;;19.36;100.00;95744.41;5074019;28;20063;-78
2023/06/21 00:10:04;;;;;;;9.48;8.57;;;;;;;19.35;100.00;95731.25;5059200;28;20029;-78
2023/06/21 00:12:30;;;;;;;10.73;8.75;;;;;;;19.26;100.00;95733.25;5062176;28;20033;-78
2023/06/21 00:14:55;;;;;;;9.32;8.43;;;;;;;19.26;100.00;95719.91;5064819;28;20238;-78
2023/06/21 00:17:21;;;;;;;11.00;8.23;;;;;;;19.22;100.00;95716.78;5072352;28;20109;-78
2023/06/21 00:19:47;;;;;;;12.32;9.27;;;;;;;19.21;100.00;95717.81;5060867;28;20132;-78
2023/06/21 00:22:14;;;;;;;11.52;9.23;;;;;;;19.23;100.00;95714.97;5056427;28;20031;-78
2023/06/21 00:24:39;;;;;;;10.00;8.60;;;;;;;19.21;100.00;95715.16;5073225;28;20055;-77
2023/06/21 00:27:05;;;;;;;16.13;8.82;;;;;;;19.24;100.00;95717.44;5075601;28;20046;-77
2023/06/21 00:29:31;;;;;;;9.48;8.57;;;;;;;19.15;100.00;95730.13;5072088;28;20051;-78
2023/06/21 00:31:58;;;;;;;9.00;8.20;;;;;;;18.97;100.00;95737.75;5071337;28;20074;-77
2023/06/21 00:34:23;;;;;;;10.63;9.05;;;;;;;18.97;100.00;95729.75;5066275;28;20040;-78
2023/06/21 00:36:48;;;;;;;12.65;8.75;;;;;;;18.97;100.00;95716.41;5075634;28;20079;-78
2023/06/21 00:39:14;;;;;;;10.75;8.98;;;;;;;18.99;100.00;95701.88;5055146;28;20020;-78
2023/06/21 00:41:40;;;;;;;12.40;8.57;;;;;;;19.07;100.00;95705.41;5068597;28;20027;-78
2023/06/21 00:44:08;;;;;;;15.13;11.50;;;;;;;19.04;100.00;95701.28;5080657;28;20058;-78
2023/06/21 00:46:34;;;;;;;13.18;9.77;;;;;;;19.00;100.00;95695.50;5078894;28;20028;-78
2023/06/21 00:48:59;;;;;;;9.60;8.75;;;;;;;18.99;100.00;95682.38;5054004;28;20047;-79
2023/06/21 00:51:25;;;;;;;10.38;8.55;;;;;;;18.89;100.00;95677.38;5032389;28;20039;-79
2023/06/21 00:53:51;;;;;;;9.00;8.13;;;;;;;18.84;100.00;95669.94;5075081;28;20480;-79
2023/06/21 00:56:16;;;;;;;8.95;8.13;;;;;;;18.86;100.00;95664.41;5082821;28;20098;-79
2023/06/21 00:58:43;;;;;;;15.07;8.38;;;;;;;18.88;100.00;95643.72;5067600;28;20028;-79
2023/06/21 01:01:08;;;;;;;12.15;8.65;;;;;;;18.91;100.00;95616.63;5048632;28;20045;-79
2023/06/21 01:03:36;;;;;;;12.98;9.43;;;;;;;18.85;100.00;95602.25;5072924;28;20025;-79
2023/06/21 01:06:32;;;;;;;9.10;8.30;;;;;;;18.81;100.00;95595.66;5074093;28;20039;-79
2023/06/21 01:09:23;;;;;;;10.07;9.05;;;;;;;18.81;100.00;95589.50;5072598;28;20024;-79
2023/06/21 01:12:03;;;;;;;11.88;8.68;;;;;;;18.80;100.00;95569.19;5068359;28;20088;-79
2023/06/21 01:14:44;;;;;;;9.63;8.63;;;;;;;18.72;100.00;95573.66;5057930;28;20564;-79
2023/06/21 01:17:11;;;;;;;9.75;8.63;;;;;;;18.50;100.00;95567.59;5071426;28;20091;-79
2023/06/21 01:19:51;;;;;;;9.82;8.93;;;;;;;18.45;100.00;95556.66;5074232;28;20516;-79
2023/06/21 01:22:40;;;;;;;11.60;8.77;;;;;;;18.36;100.00;95552.50;5072680;28;20063;-79
2023/06/21 01:25:24;;;;;;;10.27;9.27;;;;;;;18.30;100.00;95530.97;5048047;28;20032;-79
2023/06/21 01:28:09;;;;;;;10.43;8.63;;;;;;;18.26;100.00;95495.06;5071941;28;20025;-80
2023/06/21 01:30:36;;;;;;;11.90;8.80;;;;;;;18.25;100.00;95469.44;5073492;28;20332;-80
2023/06/21 01:33:05;;;;;;;9.73;8.73;;;;;;;18.27;100.00;95440.75;5055540;28;20154;-80
2023/06/21 01:35:31;;;;;;;10.02;9.05;;;;;;;18.27;100.00;95411.44;5076284;28;20025;-80
2023/06/21 01:38:00;;;;;;;11.05;8.85;;;;;;;18.28;100.00;95394.44;5070613;28;20016;-80
2023/06/21 01:40:26;;;;;;;16.67;8.80;;;;;;;18.23;100.00;95356.09;5071491;28;20024;-80
2023/06/21 01:42:51;;;;;;;10.48;9.27;;;;;;;18.14;100.00;95334.13;5051354;28;20031;-79
2023/06/21 01:45:17;;;;;;;13.43;9.38;;;;;;;18.25;100.00;95309.59;5076097;28;20025;-79
2023/06/21 01:47:44;;;;;;;11.88;9.25;;;;;;;18.27;100.00;95280.91;5073732;28;20502;-79
2023/06/21 01:50:11;;;;;;;10.45;9.13;;;;;;;18.29;100.00;95270.03;5065939;28;20031;-79
2023/06/21 01:52:38;;;;;;;10.35;9.35;;;;;;;18.28;100.00;95250.56;5073144;28;20028;-79
2023/06/21 01:55:06;;;;;;;10.75;9.27;;;;;;;18.28;100.00;95223.09;5075674;28;20041;-79
2023/06/21 01:57:35;;;;;;;13.10;10.13;;;;;;;18.29;100.00;95211.41;5073934;28;20409;-79
2023/06/21 02:00:22;;;;;;;11.25;8.88;;;;;;;18.24;100.00;95185.38;5075429;28;20431;-79
2023/06/21 02:02:59;;;;;;;11.02;9.07;;;;;;;18.13;100.00;95162.00;5071505;28;20028;-79
2023/06/21 02:05:25;;;;;;;10.98;9.00;;;;;;;18.02;100.00;95113.63;5059142;28;20026;-79
2023/06/21 02:07:52;;;;;;;15.90;9.25;;;;;;;18.09;100.00;95080.84;5068985;28;20508;-79
2023/06/21 02:10:18;;;;;;;14.68;9.80;;;;;;;18.18;100.00;95061.81;5063614;28;20029;-79
2023/06/21 02:12:48;;;;;;;10.65;9.10;;;;;;;18.16;100.00;95039.06;5070317;28;20161;-79
2023/06/21 02:15:14;;;;;;;11.07;8.95;;;;;;;18.10;100.00;95015.91;5063233;28;20115;-79
2023/06/21 02:17:40;;;;;;;11.65;8.93;;;;;;;18.07;100.00;95003.00;5071943;28;20026;-79
2023/06/21 02:20:12;;;;;;;12.40;9.15;;;;;;;18.12;100.00;94982.69;5068362;28;20047;-80
2023/06/21 02:22:39;;;;;;;10.48;9.32;;;;;;;18.08;100.00;94981.47;5070320;28;20024;-80
2023/06/21 02:25:04;;;;;;;13.02;9.45;;;;;;;17.99;100.00;94956.06;5072145;28;20024;-80
2023/06/21 02:27:30;;;;;;;14.60;9.43;;;;;;;17.91;100.00;94930.47;5074154;28;20020;-80
2023/06/21 02:29:55;;;;;;;11.68;9.40;;;;;;;17.91;100.00;94903.84;5067423;28;20116;-80
2023/06/21 02:32:21;;;;;;;10.77;9.65;;;;;;;17.90;100.00;94888.91;5070306;28;20012;-80
2023/06/21 02:34:46;;;;;;;14.43;9.07;;;;;;;17.90;100.00;94828.50;5068800;28;20021;-80
2023/06/21 02:37:11;;;;;;;13.98;9.15;;;;;;;17.88;100.00;94825.19;5070185;28;20024;-80
2023/06/21 02:39:38;;;;;;;10.50;9.48;;;;;;;17.88;100.00;94797.75;5068143;28;20025;-80
2023/06/21 02:42:03;;;;;;;12.20;9.05;;;;;;;17.85;100.00;94766.25;5052228;28;20091;-81
2023/06/21 02:44:29;;;;;;;16.02;9.05;;;;;;;17.86;100.00;94755.38;5078352;28;20059;-81
2023/06/21 02:47:32;;;;;;;12.55;10.20;;;;;;;17.90;100.00;94721.16;5068816;28;20024;-80
2023/06/21 02:49:57;;;;;;;9.65;8.65;;;;;;;17.84;100.00;94700.72;5071113;28;20021;-80
2023/06/21 02:52:23;;;;;;;11.30;9.20;;;;;;;17.89;100.00;94679.59;5069071;28;20027;-86
2023/06/21 02:54:48;;;;;;;12.32;10.45;;;;;;;17.96;100.00;94656.41;5078434;28;20081;-81
2023/06/21 02:57:14;;;;;;;11.70;9.40;;;;;;;17.97;100.00;94628.75;5065284;28;20047;-80
2023/06/21 02:59:51;;;;;;;13.82;9.80;;;;;;;18.04;100.00;94594.94;5069519;28;20024;-81
2023/06/21 03:02:17;;;;;;;10.85;9.75;;;;;;;18.07;100.00;94561.72;5046156;28;20028;-81
2023/06/21 03:04:43;;;;;;;11.15;9.32;;;;;;;18.10;100.00;94536.53;5076605;28;20039;-80
2023/06/21 03:07:09;;;;;;;10.85;9.63;;;;;;;18.16;100.00;94511.69;5069642;28;20028;-79
2023/06/21 03:09:34;;;;;;;13.13;9.13;;;;;;;18.13;100.00;94507.63;5043520;28;20039;-80
2023/06/21 03:12:07;;;;;;;11.80;9.20;;;;;;;18.14;100.00;94490.59;5069455;28;20161;-80
2023/06/21 03:14:36;;;;;;;12.55;9.13;;;;;;;18.11;100.00;94474.25;5069325;28;20107;-80
2023/06/21 03:17:02;;;;;;;18.58;9.70;;;;;;;18.11;100.00;94447.59;5069029;28;20028;-81
2023/06/21 03:19:28;;;;;;;11.85;9.18;;;;;;;18.09;100.00;94428.38;5058257;28;20071;-81
2023/06/21 03:21:53;;;;;;;13.57;9.40;;;;;;;18.10;100.00;94396.19;5051244;28;20025;-81
2023/06/21 03:24:19;;;;;;;11.38;9.75;;;;;;;18.14;100.00;94349.44;5042568;28;20035;-81
2023/06/21 03:26:44;;;;;;;13.43;9.90;;;;;;;18.20;100.00;94321.09;5076806;28;20020;-82
2023/06/21 03:29:10;;;;;;;11.52;9.50;;;;;;;18.20;100.00;94301.66;5068541;28;20207;-81
2023/06/21 03:31:35;;;;;;;12.35;9.35;;;;;;;18.22;100.00;94286.25;5050852;28;20079;-82
2023/06/21 03:34:00;;;;;;;12.65;9.25;;;;;;;18.17;100.00;94286.91;5042604;28;20134;-81
2023/06/21 03:36:28;;;;;;;12.40;9.07;;;;;;;18.17;100.00;94260.28;5071003;28;20033;-81
2023/06/21 03:38:53;;;;;;;11.48;9.32;;;;;;;18.18;100.00;94195.34;5063661;28;20070;-81
2023/06/21 03:41:19;;;;;;;9.45;8.43;;;;;;;18.13;100.00;94173.91;5070010;28;20024;-81
2023/06/21 03:43:44;;;;;;;9.45;8.50;;;;;;;18.14;100.00;94154.22;5065390;28;20032;-81
2023/06/21 03:46:11;;;;;;;11.73;9.07;;;;;;;18.16;100.00;94138.81;5068085;28;20103;-81
2023/06/21 03:48:36;;;;;;;14.27;9.32;;;;;;;18.15;100.00;94127.38;5064741;28;20078;-81
2023/06/21 03:51:02;;;;;;;9.93;8.70;;;;;;;18.17;100.00;94125.28;5069083;28;20021;-81
2023/06/21 03:53:27;;;;;;;14.63;9.73;;;;;;;18.16;100.00;94122.84;5048120;28;20036;-82
2023/06/21 03:55:53;;;;;;;11.85;9.77;;;;;;;18.12;100.00;94076.41;5072678;28;20146;-82
2023/06/21 03:58:18;;;;;;;16.83;9.90;;;;;;;18.18;100.00;94035.53;5065092;28;20393;-81
2023/06/21 04:00:44;;;;;;;14.82;9.88;;;;;;;18.25;100.00;94000.81;5062818;28;20017;-82
2023/06/21 04:03:09;;;;;;;18.00;10.07;;;;;;;18.27;100.00;93970.25;5069836;28;20025;-82
2023/06/21 04:05:35;;;;;;;16.00;10.63;;;;;;;18.35;100.00;93930.97;5071954;28;20028;-83
2023/06/21 04:08:00;;;;;;;12.43;10.55;;;;;;;18.41;100.00;93756.88;5070657;28;20032;-84
2023/06/21 04:10:26;;;;;;;19.95;11.27;;;;;;;18.45;100.00;93699.41;5073772;28;20163;-82
2023/06/21 04:12:51;;;;;;;13.38;10.10;;;;;;;18.51;100.00;93639.84;5076083;28;20070;-82
2023/06/21 04:15:17;;;;;;;11.23;10.07;;;;;;;18.59;100.00;93583.50;5079212;28;20029;-81
2023/06/21 04:17:43;;;;;;;24.48;11.00;;;;;;;18.64;100.00;93566.78;5075718;28;20467;-81
2023/06/21 04:20:10;;;;;;;15.80;9.55;;;;;;;18.71;100.00;93564.75;5069893;28;20044;-81
2023/06/21 04:22:40;;;;;;;21.52;10.35;;;;;;;18.77;100.00;93557.63;5072754;28;20020;-82
2023/06/21 04:25:06;;;;;;;14.35;10.23;;;;;;;18.71;100.00;93579.94;5073410;28;20412;-82
2023/06/21 04:27:32;;;;;;;17.27;9.95;;;;;;;18.67;100.00;93608.09;5061052;28;20028;-82
2023/06/21 04:29:57;;;;;;;13.77;10.13;;;;;;;18.58;100.00;93629.84;5069894;28;20028;-82
2023/06/21 04:32:23;;;;;;;14.48;10.23;;;;;;;18.59;100.00;93639.44;5061957;28;20483;-83
2023/06/21 04:34:48;;;;;;;14.18;10.07;;;;;;;18.63;100.00;93665.59;5053414;28;20032;-84
2023/06/21 04:37:14;;;;;;;20.02;11.35;;;;;;;18.67;100.00;93781.31;5068257;28;20484;-83
2023/06/21 04:39:39;;;;;;;11.75;9.70;;;;;;;18.75;100.00;93783.63;5080771;28;20052;-83
2023/06/21 04:42:05;;;;;;;13.95;10.32;;;;;;;18.83;100.00;93799.22;5074638;28;20211;-81
2023/06/21 04:44:31;;;;;;;13.95;11.07;;;;;;;18.86;100.00;93796.06;5069048;28;20032;-81
2023/06/21 04:46:59;;;;;;;14.50;10.63;;;;;;;18.89;100.00;93802.78;5069029;28;20074;-81
2023/06/21 04:49:27;;;;;;;15.98;10.27;;;;;;;18.97;100.00;93807.72;5075264;28;20032;-82
2023/06/21 04:51:57;;;;;;;14.48;9.98;;;;;;;19.01;100.00;93824.06;5071696;28;20025;-80
2023/06/21 04:54:23;;;;;;;16.77;10.55;;;;;;;19.02;100.00;93834.50;5070770;28;20435;-83
2023/06/21 04:56:50;;;;;;;18.92;10.13;;;;;;;18.99;100.00;93853.63;5075213;28;20028;-80
2023/06/21 04:59:16;;;;;;;11.70;9.75;;;;;;;18.89;100.00;93872.88;5072169;28;20048;-80
2023/06/21 05:01:41;;;;;;;12.10;9.48;;;;;;;18.88;100.00;93860.59;5072893;28;20028;-79
2023/06/21 05:04:07;;;;;;;15.27;9.70;;;;;;;18.90;100.00;93849.72;5072868;28;20025;-80
2023/06/21 05:06:32;;;;;;;15.32;10.18;;;;;;;18.86;100.00;93869.91;5074541;28;20025;-80
2023/06/21 05:08:57;;;;;;;11.20;9.98;;;;;;;18.78;100.00;93879.09;5076723;28;20025;-80
2023/06/21 05:11:23;;;;;;;12.27;9.82;;;;;;;18.79;100.00;93877.22;5069900;28;20064;-80
2023/06/21 05:13:48;;;;;;;14.95;10.00;;;;;;;18.82;100.00;93853.56;5074774;28;20029;-80
2023/06/21 05:16:14;;;;;;;12.88;10.05;;;;;;;18.89;100.00;93830.22;5070178;28;20099;-80
2023/06/21 05:18:39;;;;;;;14.23;9.50;;;;;;;18.96;100.00;93834.63;5069653;28;20086;-80
2023/06/21 05:21:05;;;;;;;14.63;9.50;;;;;;;18.96;100.00;93815.97;5066374;28;20091;-80
2023/06/21 05:23:30;;;;;;;13.13;9.30;;;;;;;19.11;100.00;93794.91;5071199;28;20507;-79
2023/06/21 05:25:55;;;;;;;15.13;10.10;;;;;;;19.20;100.00;93775.84;5079356;28;20024;-80
2023/06/21 05:28:21;;;;;;;17.38;10.05;;;;;;;19.21;100.00;93796.13;5065185;28;20026;-80
2023/06/21 05:30:47;;;;;;;17.08;10.30;;;;;;;19.21;100.00;93817.47;5072701;28;20028;-80
2023/06/21 05:33:14;;;;;;;13.50;10.38;;;;;;;19.17;100.00;93843.81;5076639;28;20025;-80
2023/06/21 05:35:40;;;;;;;14.23;10.13;;;;;;;19.11;100.00;93834.09;5073733;28;20024;-79
2023/06/21 05:38:05;;;;;;;12.13;9.90;;;;;;;19.16;100.00;93820.84;5073852;28;20025;-79
2023/06/21 05:40:31;;;;;;;10.57;9.32;;;;;;;19.37;100.00;93789.16;5073677;28;20090;-80
2023/06/21 05:43:01;;;;;;;10.75;8.95;;;;;;;19.61;100.00;93795.13;5074575;28;20020;-80
2023/06/21 05:45:27;;;;;;;16.70;9.73;;;;;;;19.74;100.00;93789.44;5069589;28;20499;-81
2023/06/21 05:47:52;;;;;;;16.63;9.88;;;;;;;19.81;100.00;93804.50;5072400;28;20024;-81
2023/06/21 05:50:17;;;;;;;18.05;8.93;;;;;;;19.83;100.00;93816.53;5073052;28;20021;-81
2023/06/21 05:52:43;;;;;;;20.67;9.98;;;;;;;19.87;100.00;93822.19;5078612;28;20040;-81
2023/06/21 05:55:08;;;;;;;15.45;9.15;;;;;;;19.95;100.00;93821.00;5075838;28;20468;-80
2023/06/21 05:57:34;;;;;;;17.92;9.55;;;;;;;20.13;100.00;93815.38;5075350;28;20499;-80
2023/06/21 05:59:59;;;;;;;12.68;9.10;;;;;;;20.31;100.00;93827.59;5060259;28;20036;-80
2023/06/21 06:02:25;;;;;;;20.60;9.05;;;;;;;20.41;100.00;93842.13;5084663;28;20051;-79
2023/06/21 06:04:50;;;;;;;17.58;9.80;;;;;;;20.57;100.00;93833.25;5089239;28;20020;-79
2023/06/21 06:07:15;;;;;;;13.40;8.82;;;;;;;20.69;100.00;93840.34;5079928;28;20071;-79
2023/06/21 06:09:41;;;;;;;12.45;9.95;;;;;;;20.79;100.00;93844.97;5072849;28;20027;-79
2023/06/21 06:12:07;;;;;;;14.18;8.57;;;;;;;20.88;100.00;93857.66;5083325;28;20385;-79
2023/06/21 06:14:32;;;;;;;14.65;8.98;;;;;;;20.97;100.00;93868.72;5083463;28;20024;-78
2023/06/21 06:16:57;;;;;;;15.48;8.63;;;;;;;20.99;100.00;93877.28;5078272;28;20032;-76
2023/06/21 06:19:23;;;;;;;10.02;8.57;;;;;;;21.08;100.00;93890.22;5058629;28;20135;-78
2023/06/21 06:21:51;;;;;;;12.20;9.07;;;;;;;21.21;100.00;93879.09;5084936;28;20016;-80
2023/06/21 06:24:17;;;;;;;16.05;8.60;;;;;;;21.22;100.00;93896.81;5064989;28;20103;-79
2023/06/21 06:26:42;;;;;;;18.42;9.02;;;;;;;21.26;100.00;93892.56;5066065;28;20084;-78
2023/06/21 06:29:07;;;;;;;20.45;10.00;;;;;;;21.44;100.00;93740.66;5056523;28;20016;-72
2023/06/21 06:31:33;;;;;;;23.90;8.93;;;;;;;21.60;100.00;93736.25;5076319;28;20020;-79
2023/06/21 06:33:58;;;;;;;21.30;10.07;;;;;;;21.76;100.00;93737.16;5064768;28;20071;-73
2023/06/21 06:36:24;;;;;;;13.07;8.35;;;;;;;22.06;100.00;93716.91;5078319;28;20388;-80
2023/06/21 06:38:49;;;;;;;11.18;8.85;;;;;;;22.38;100.00;93723.19;5053727;28;20021;-80
2023/06/21 06:41:16;;;;;;;17.10;9.10;;;;;;;22.65;100.00;93743.63;5064555;28;20021;-78
2023/06/21 06:43:41;;;;;;;12.60;9.07;;;;;;;22.93;100.00;93768.38;5067365;28;20036;-79
2023/06/21 06:46:07;;;;;;;15.32;9.00;;;;;;;23.21;100.00;93790.38;5083373;28;20020;-75
2023/06/21 06:48:32;;;;;;;17.42;8.65;;;;;;;23.34;100.00;93858.88;5064913;28;20035;-76
2023/06/21 06:50:58;;;;;;;13.20;7.55;;;;;;;23.37;100.00;93920.91;5073511;28;20024;-75
2023/06/21 06:53:24;;;;;;;11.18;7.50;;;;;;;23.21;100.00;93971.03;5070651;28;20032;-75
2023/06/21 06:55:51;;;;;;;14.10;8.45;;;;;;;23.11;100.00;93992.47;5069494;28;20028;-76
2023/06/21 06:58:21;;;;;;;17.58;9.00;;;;;;;23.44;100.00;93971.66;5055836;28;20024;-76
2023/06/21 07:00:46;;;;;;;11.70;8.02;;;;;;;23.72;100.00;94013.34;5070250;28;20020;-76
2023/06/21 07:03:12;;;;;;;12.82;8.70;;;;;;;23.77;100.00;94052.84;5080516;28;20043;-77
2023/06/21 07:05:43;;;;;;;12.10;7.85;;;;;;;23.75;100.00;94084.53;5056728;28;20149;-75
2023/06/21 07:08:10;;;;;;;13.18;7.70;;;;;;;23.55;100.00;94061.91;5070130;28;20472;-76
2023/06/21 07:10:35;;;;;;;15.32;8.05;;;;;;;23.32;100.00;94053.25;5067257;28;20473;-77
2023/06/21 07:13:02;;;;;;;24.85;9.30;;;;;;;23.28;100.00;94035.22;5081358;28;20028;-76
2023/06/21 07:15:28;;;;;;;14.82;7.90;;;;;;;23.14;100.00;94061.72;5074704;28;20020;-79
2023/06/21 07:17:53;;;;;;;12.98;7.88;;;;;;;23.05;100.00;94080.19;5086133;28;20073;-74
2023/06/21 07:20:19;;;;;;;11.18;8.10;;;;;;;22.94;100.00;94086.56;5084078;28;20116;-78
2023/06/21 07:22:44;;;;;;;16.08;7.78;;;;;;;22.86;100.00;94067.19;5084043;28;20021;-82
2023/06/21 07:25:10;;;;;;;14.93;8.45;;;;;;;22.89;100.00;94077.44;5065461;28;20020;-82
2023/06/21 07:27:35;;;;;;;15.68;8.68;;;;;;;22.91;100.00;94087.88;5074989;28;20036;-75
2023/06/21 07:30:02;;;;;;;15.93;8.88;;;;;;;22.96;100.00;94062.97;5056035;28;20018;-82
2023/06/21 07:32:27;;;;;;;12.20;8.77;;;;;;;23.05;100.00;94047.97;5070306;28;20051;-77
2023/06/21 07:34:53;;;;;;;12.85;8.07;;;;;;;23.13;100.00;94052.88;5065920;28;20021;-78
2023/06/21 07:37:19;;;;;;;18.92;8.07;;;;;;;23.25;100.00;94059.88;5074064;28;20020;-78
2023/06/21 07:39:45;;;;;;;11.80;7.97;;;;;;;23.26;100.00;94050.78;5051788;28;20021;-77
2023/06/21 07:42:12;;;;;;;12.40;8.70;;;;;;;23.52;100.00;94045.50;5053564;28;20848;-77
2023/06/21 07:44:37;;;;;;;12.20;8.05;;;;;;;23.86;100.00;94077.31;5074141;28;20019;-78
2023/06/21 07:47:03;;;;;;;13.52;7.63;;;;;;;23.93;100.00;94099.34;5070375;28;20029;-77
2023/06/21 07:49:28;;;;;;;12.90;8.05;;;;;;;23.89;100.00;94141.28;5078424;28;20028;-74
2023/06/21 07:51:54;;;;;;;14.35;8.18;;;;;;;23.75;100.00;94119.47;5085979;28;20021;-80
2023/06/21 07:54:19;;;;;;;14.43;7.90;;;;;;;23.74;100.00;94107.09;5072955;28;20601;-81
2023/06/21 07:56:45;;;;;;;14.30;8.40;;;;;;;23.56;100.00;94116.44;5085308;28;20086;-77
2023/06/21 07:59:10;;;;;;;13.43;8.07;;;;;;;23.33;100.00;94072.84;5064745;28;20047;-78
2023/06/21 08:01:35;;;;;;;16.90;8.80;;;;;;;23.28;100.00;94019.13;5060286;28;20435;-82
2023/06/21 08:04:01;;;;;;;16.40;8.48;;;;;;;23.54;100.00;94003.09;5076809;28;20070;-76
2023/06/21 08:06:27;;;;;;;13.52;7.78;;;;;;;23.95;100.00;94003.16;5078241;28;20031;-80
2023/06/21 08:08:53;;;;;;;12.65;8.38;;;;;;;24.38;100.00;94112.34;5081629;28;20020;-80
2023/06/21 08:11:18;;;;;;;12.57;8.48;;;;;;;24.40;100.00;94190.88;5085550;28;20017;-73
2023/06/21 08:13:44;;;;;;;13.80;9.00;;;;;;;24.14;100.00;94197.03;5071998;28;20012;-78
2023/06/21 08:16:09;;;;;;;13.93;9.75;;;;;;;23.91;100.00;94197.44;5089148;28;20434;-82
2023/06/21 08:18:35;;;;;;;17.45;9.05;;;;;;;23.63;100.00;94189.53;5060293;28;20049;-79
2023/06/21 08:21:00;;;;;;;14.88;9.00;;;;;;;23.43;100.00;94145.38;5072036;28;20055;-78
2023/06/21 08:23:26;;;;;;;13.90;9.02;;;;;;;23.78;100.00;94153.06;5066919;28;20056;-79
2023/06/21 08:25:51;;;;;;;17.52;9.30;;;;;;;23.20;100.00;94178.75;5076082;28;20033;-78
2023/06/21 08:28:17;;;;;;;25.83;9.25;;;;;;;22.90;100.00;94105.06;5080361;28;20428;-78
2023/06/21 08:30:42;;;;;;;15.88;9.60;;;;;;;22.95;100.00;94096.22;5077509;28;20037;-78
2023/06/21 08:33:09;;;;;;;13.82;9.20;;;;;;;22.85;100.00;94080.88;5069945;28;20484;-77
2023/06/21 08:35:35;;;;;;;15.57;9.90;;;;;;;22.68;100.00;94027.41;5068986;28;20017;-82
2023/06/21 08:38:01;;;;;;;14.38;9.45;;;;;;;22.58;100.00;93958.44;5066321;28;20024;-78
2023/06/21 08:40:30;;;;;;;17.40;10.70;;;;;;;22.51;100.00;93905.03;5086854;28;20523;-77
2023/06/21 08:42:56;;;;;;;15.45;9.43;;;;;;;22.53;100.00;93848.44;5087588;28;20282;-77
2023/06/21 08:45:22;;;;;;;17.35;10.60;;;;;;;22.62;100.00;93801.31;5077289;28;20255;-77
2023/06/21 08:47:49;;;;;;;21.27;10.05;;;;;;;22.85;100.00;93775.06;5077483;28;20028;-75
2023/06/21 08:50:17;;;;;;;19.65;9.68;;;;;;;22.89;100.00;93793.06;5075828;28;20511;-76
2023/06/21 08:52:45;;;;;;;18.98;9.95;;;;;;;22.96;100.00;93808.88;5053443;28;20023;-77
2023/06/21 08:55:14;;;;;;;14.27;9.75;;;;;;;22.92;100.00;93823.09;5071003;28;20588;-76
2023/06/21 08:57:41;;;;;;;16.83;10.30;;;;;;;22.88;100.00;93812.91;5063853;28;20499;-76
2023/06/21 09:00:10;;;;;;;25.65;9.63;;;;;;;22.94;100.00;93768.09;5057081;28;20123;-81
2023/06/21 09:02:45;;;;;;;18.38;9.40;;;;;;;23.24;100.00;93750.41;5062234;28;20028;-78
2023/06/21 09:05:35;;;;;;;14.80;9.57;;;;;;;23.45;100.00;93788.00;5072819;28;20093;-78
2023/06/21 09:08:04;;;;;;;16.42;8.75;;;;;;;23.42;100.00;93836.84;5074177;28;20028;-80
2023/06/21 09:10:31;;;;;;;12.20;8.52;;;;;;;23.34;100.00;93866.94;5082231;28;20024;-80
2023/06/21 09:12:58;;;;;;;11.93;9.20;;;;;;;23.34;100.00;93851.66;5074506;28;20035;-78
2023/06/21 09:15:24;;;;;;;12.63;8.63;;;;;;;23.51;100.00;93812.97;5075893;28;20020;-76
2023/06/21 09:17:50;;;;;;;16.25;9.63;;;;;;;23.69;100.00;93811.63;5069821;28;20404;-74
2023/06/21 09:20:16;;;;;;;20.95;9.35;;;;;;;23.86;100.00;93838.97;5071525;28;20404;-74
2023/06/21 09:22:44;;;;;;;13.77;8.55;;;;;;;23.96;100.00;93899.97;5070750;28;20150;-76
2023/06/21 09:25:09;;;;;;;16.17;8.70;;;;;;;24.09;100.00;93913.97;5071460;28;20494;-76
2023/06/21 09:27:35;;;;;;;18.50;8.05;;;;;;;24.30;100.00;93960.44;5066058;28;20048;-76
2023/06/21 09:30:00;;;;;;;17.95;9.77;;;;;;;24.49;100.00;93944.56;5075324;28;20105;-77
2023/06/21 09:32:26;;;;;;;15.10;9.02;;;;;;;25.00;100.00;93950.88;5075232;28;20146;-76
2023/06/21 09:34:51;;;;;;;19.20;9.00;;;;;;;25.90;100.00;94039.88;5075145;28;20039;-81
2023/06/21 09:37:34;;;;;;;15.05;8.48;;;;;;;26.80;100.00;94190.88;5063336;28;20033;-77
2023/06/21 09:39:59;;;;;;;13.52;8.15;;;;;;;27.17;100.00;94294.06;5076687;28;20028;-80
2023/06/21 09:42:26;;;;;;;15.40;9.43;;;;;;;27.27;100.00;94391.25;5075288;28;20032;-83
2023/06/21 09:44:52;;;;;;;15.45;8.70;;;;;;;26.83;100.00;94462.97;5055457;28;20040;-79
2023/06/21 09:47:18;;;;;;;14.82;8.05;;;;;;;26.20;100.00;94448.00;5057417;28;20108;-81
2023/06/21 09:49:47;;;;;;;13.98;8.20;;;;;;;26.55;100.00;94416.63;5069991;28;20033;-78
2023/06/21 09:52:20;;;;;;;13.75;8.02;;;;;;;27.13;100.00;94493.69;5067718;28;20029;-81
2023/06/21 09:54:46;;;;;;;19.27;8.45;;;;;;;26.83;100.00;94564.75;5061970;28;20051;-82
2023/06/21 09:57:12;;;;;;;15.63;8.27;;;;;;;26.41;100.00;94527.00;5068014;28;20043;-80
2023/06/21 09:59:38;;;;;;;10.98;7.63;;;;;;;26.26;100.00;94481.97;5071741;28;20032;-82
2023/06/21 10:02:05;;;;;;;13.30;8.32;;;;;;;26.52;100.00;94467.63;5072031;28;20070;-84
2023/06/21 10:04:39;;;;;;;11.35;8.10;;;;;;;26.91;100.00;94509.44;5072660;28;20129;-85
2023/06/21 10:07:06;;;;;;;13.15;7.78;;;;;;;27.42;100.00;94559.75;5075052;28;20055;-88
2023/06/21 10:09:37;;;;;;;12.57;7.53;;;;;;;27.46;100.00;94604.84;5074345;28;20028;-86
2023/06/21 10:12:06;;;;;;;10.35;8.18;;;;;;;27.54;100.00;94635.16;5075552;28;20489;-87
2023/06/21 10:14:31;;;;;;;15.60;8.20;;;;;;;27.43;100.00;94640.53;5074220;28;20102;-85
2023/06/21 10:16:57;;;;;;;14.48;7.95;;;;;;;27.13;100.00;94642.22;5066457;28;20032;-86
2023/06/21 10:19:25;;;;;;;16.02;8.20;;;;;;;27.40;100.00;94649.19;5072158;28;20139;-82
2023/06/21 10:21:59;;;;;;;11.82;7.85;;;;;;;27.58;100.00;94692.97;5064779;28;20036;-80
2023/06/21 10:24:26;;;;;;;;;;;;;;;27.37;100.00;94711.06;5069188;28;20028;-89
2023/06/21 10:26:53;;;;;;;12.93;7.45;;;;;;;27.18;100.00;94725.13;5059686;28;20353;-83
2023/06/21 10:29:20;;;;;;;16.50;7.95;;;;;;;27.16;100.00;94736.22;5061376;28;20396;-82
2023/06/21 10:31:48;;;;;;;12.75;7.82;;;;;;;27.06;100.00;94727.31;5063191;28;20064;-80
2023/06/21 10:34:19;;;;;;;14.25;8.15;;;;;;;26.91;100.00;94725.41;5075247;28;20059;-81
2023/06/21 10:36:50;;;;;;;16.95;7.72;;;;;;;26.82;100.00;94736.72;5075044;28;20048;-82
2023/06/21 10:39:16;;;;;;;11.73;7.32;;;;;;;26.87;100.00;94798.03;5057298;28;20027;-88
2023/06/21 10:41:43;;;;;;;12.10;8.32;;;;;;;26.90;100.00;94807.50;5072668;28;20060;-87
2023/06/21 10:44:10;;;;;;;14.60;8.32;;;;;;;26.93;100.00;94820.47;5062266;28;20031;-81
2023/06/21 10:46:38;;;;;;;12.55;7.57;;;;;;;26.88;100.00;94889.59;5066559;28;20032;-84
2023/06/21 10:49:03;;;;;;;16.58;7.47;;;;;;;26.75;100.00;94863.03;5074624;28;20111;-87
2023/06/21 10:51:33;;;;;;;15.25;7.93;;;;;;;26.63;100.00;94848.94;5057415;28;20059;-80
2023/06/21 10:53:59;;;;;;;14.57;7.75;;;;;;;26.52;100.00;94846.22;5074506;28;20029;-85
2023/06/21 10:56:26;;;;;;;10.88;7.97;;;;;;;26.55;100.00;94828.72;5075334;28;20032;-80
2023/06/21 10:58:52;;;;;;;10.65;7.65;;;;;;;26.50;100.00;94826.78;5074755;28;20024;-79
2023/06/21 11:01:20;;;;;;;13.98;7.75;;;;;;;26.52;100.00;94803.03;5074466;28;20025;-79
2023/06/21 11:03:46;;;;;;;13.52;8.18;;;;;;;26.53;100.00;94812.75;5052001;28;20056;-77
2023/06/21 11:06:21;;;;;;;13.60;7.78;;;;;;;26.68;100.00;94812.00;5071151;28;20036;-79
2023/06/21 11:08:47;;;;;;;12.20;8.85;;;;;;;26.87;100.00;94819.63;5074307;28;20033;-80
2023/06/21 11:11:32;;;;;;;14.82;8.75;;;;;;;27.41;100.00;94852.66;5068916;28;20028;-76
2023/06/21 11:14:01;;;;;;;14.63;7.88;;;;;;;27.90;100.00;94891.09;5073110;28;20033;-80
2023/06/21 11:16:31;;;;;;;11.52;7.72;;;;;;;28.28;100.00;94924.88;5055962;28;20370;-76